sensor_id;sensor_type;location;lat;lon;timestamp;pressure;altitude;pressure_sealevel;temperature;humidity
7200;BME280;3641;49.082;8.200;2024-02-16T00:01:44;100154.63;;;10.29;98.50
7200;BME280;3641;49.082;8.200;2024-02-16T00:04:10;100144.97;;;10.26;98.97
7200;BME280;3641;49.082;8.200;2024-02-16T00:06:37;100151.06;;;10.28;98.61
7200;BME280;3641;49.082;8.200;2024-02-16T00:09:05;100165.28;;;10.24;99.25
7200;BME280;3641;49.082;8.200;2024-02-16T00:11:35;100150.34;;;10.20;99.63
7200;BME280;3641;49.082;8.200;2024-02-16T00:14:01;100151.44;;;10.25;98.50
7200;BME280;3641;49.082;8.200;2024-02-16T00:16:28;100160.28;;;10.12;100.00
7200;BME280;3641;49.082;8.200;2024-02-16T00:18:54;100166.03;;;10.17;99.27
7200;BME280;3641;49.082;8.200;2024-02-16T00:21:20;100155.66;;;10.13;99.62
7200;BME280;3641;49.082;8.200;2024-02-16T00:23:47;100156.63;;;10.20;98.57
7200;BME280;3641;49.082;8.200;2024-02-16T00:26:15;100158.34;;;10.21;98.70
7200;BME280;3641;49.082;8.200;2024-02-16T00:28:41;100160.56;;;10.17;98.70
7200;BME280;3641;49.082;8.200;2024-02-16T00:31:08;100160.28;;;10.12;99.40
7200;BME280;3641;49.082;8.200;2024-02-16T00:33:35;100161.63;;;10.16;98.61
7200;BME280;3641;49.082;8.200;2024-02-16T00:36:01;100160.28;;;10.12;99.15
7200;BME280;3641;49.082;8.200;2024-02-16T00:38:28;100154.75;;;10.06;99.70
7200;BME280;3641;49.082;8.200;2024-02-16T00:40:54;100152.66;;;10.08;99.78
7200;BME280;3641;49.082;8.200;2024-02-16T00:43:22;100158.31;;;10.06;99.52
7200;BME280;3641;49.082;8.200;2024-02-16T00:45:48;100153.91;;;10.05;99.07
7200;BME280;3641;49.082;8.200;2024-02-16T00:48:15;100166.00;;;10.03;99.60
7200;BME280;3641;49.082;8.200;2024-02-16T00:50:41;100164.31;;;10.02;99.46
7200;BME280;3641;49.082;8.200;2024-02-16T00:53:08;100160.19;;;10.06;98.97
7200;BME280;3641;49.082;8.200;2024-02-16T00:55:34;100154.00;;;10.12;98.47
7200;BME280;3641;49.082;8.200;2024-02-16T00:58:02;100157.09;;;10.09;98.57
7200;BME280;3641;49.082;8.200;2024-02-16T01:00:30;100156.41;;;10.07;99.17
7200;BME280;3641;49.082;8.200;2024-02-16T01:02:56;100160.19;;;10.06;98.98
7200;BME280;3641;49.082;8.200;2024-02-16T01:05:23;100152.00;;;10.06;99.10
7200;BME280;3641;49.082;8.200;2024-02-16T01:07:49;100148.44;;;10.05;99.03
7200;BME280;3641;49.082;8.200;2024-02-16T01:10:15;100145.91;;;10.04;98.88
7200;BME280;3641;49.082;8.200;2024-02-16T01:12:42;100153.22;;;10.03;99.31
7200;BME280;3641;49.082;8.200;2024-02-16T01:15:09;100156.31;;;10.00;99.66
7200;BME280;3641;49.082;8.200;2024-02-16T01:17:37;100160.75;;;10.01;100.00
7200;BME280;3641;49.082;8.200;2024-02-16T01:20:06;100151.91;;;9.99;99.83
7200;BME280;3641;49.082;8.200;2024-02-16T01:22:35;100157.75;;;10.11;98.82
7200;BME280;3641;49.082;8.200;2024-02-16T01:25:02;100156.41;;;10.07;99.47
7200;BME280;3641;49.082;8.200;2024-02-16T01:27:28;100153.31;;;9.95;100.00
7200;BME280;3641;49.082;8.200;2024-02-16T01:29:55;100149.00;;;10.00;100.00
7200;BME280;3641;49.082;8.200;2024-02-16T01:32:21;100148.22;;;9.92;100.00
7200;BME280;3641;49.082;8.200;2024-02-16T01:34:49;100153.69;;;9.92;100.00
7200;BME280;3641;49.082;8.200;2024-02-16T01:37:16;100154.16;;;9.95;100.00
7200;BME280;3641;49.082;8.200;2024-02-16T01:39:42;100153.13;;;9.96;100.00
7200;BME280;3641;49.082;8.200;2024-02-16T01:42:08;100152.00;;;9.91;100.00
7200;BME280;3641;49.082;8.200;2024-02-16T01:44:35;100147.41;;;10.06;99.33
7200;BME280;3641;49.082;8.200;2024-02-16T01:47:03;100155.00;;;10.11;99.12
7200;BME280;3641;49.082;8.200;2024-02-16T01:49:29;100155.84;;;9.96;100.00
7200;BME280;3641;49.082;8.200;2024-02-16T01:51:57;100154.75;;;10.06;99.47
7200;BME280;3641;49.082;8.200;2024-02-16T01:54:23;100158.03;;;10.01;100.00
7200;BME280;3641;49.082;8.200;2024-02-16T01:56:50;100150.13;;;10.06;99.44
7200;BME280;3641;49.082;8.200;2024-02-16T01:59:17;100152.47;;;9.94;100.00
7200;BME280;3641;49.082;8.200;2024-02-16T02:01:43;100157.38;;;9.99;100.00
7200;BME280;3641;49.082;8.200;2024-02-16T02:04:10;100153.97;;;9.97;100.00
7200;BME280;3641;49.082;8.200;2024-02-16T02:06:37;100144.28;;;9.94;100.00
7200;BME280;3641;49.082;8.200;2024-02-16T02:09:05;100153.59;;;10.00;100.00
7200;BME280;3641;49.082;8.200;2024-02-16T02:11:32;100152.09;;;9.97;100.00
7200;BME280;3641;49.082;8.200;2024-02-16T02:13:58;100144.66;;;9.91;100.00
7200;BME280;3641;49.082;8.200;2024-02-16T02:16:25;100144.94;;;9.96;100.00
7200;BME280;3641;49.082;8.200;2024-02-16T02:18:53;100149.94;;;9.93;100.00
7200;BME280;3641;49.082;8.200;2024-02-16T02:21:19;100140.31;;;9.97;100.00
7200;BME280;3641;49.082;8.200;2024-02-16T02:23:47;100142.59;;;9.93;100.00
7200;BME280;3641;49.082;8.200;2024-02-16T02:26:14;100139.59;;;10.03;100.00
7200;BME280;3641;49.082;8.200;2024-02-16T02:28:41;100136.94;;;9.95;100.00
7200;BME280;3641;49.082;8.200;2024-02-16T02:31:08;100139.28;;;9.83;100.00
7200;BME280;3641;49.082;8.200;2024-02-16T02:33:35;100132.41;;;9.87;100.00
7200;BME280;3641;49.082;8.200;2024-02-16T02:36:01;100144.47;;;9.93;100.00
7200;BME280;3641;49.082;8.200;2024-02-16T02:38:29;100140.22;;;9.90;100.00
7200;BME280;3641;49.082;8.200;2024-02-16T02:40:57;100132.31;;;9.80;100.00
7200;BME280;3641;49.082;8.200;2024-02-16T02:43:24;100135.66;;;9.91;100.00
7200;BME280;3641;49.082;8.200;2024-02-16T02:45:50;100130.06;;;9.84;100.00
7200;BME280;3641;49.082;8.200;2024-02-16T02:48:16;100134.78;;;9.90;100.00
7200;BME280;3641;49.082;8.200;2024-02-16T02:50:43;100130.69;;;9.56;100.00
7200;BME280;3641;49.082;8.200;2024-02-16T02:53:09;100138.97;;;9.78;100.00
7200;BME280;3641;49.082;8.200;2024-02-16T02:55:36;100130.25;;;9.82;100.00
7200;BME280;3641;49.082;8.200;2024-02-16T02:58:03;100129.13;;;9.77;100.00
7200;BME280;3641;49.082;8.200;2024-02-16T03:00:30;100121.97;;;9.76;100.00
7200;BME280;3641;49.082;8.200;2024-02-16T03:02:56;100118.41;;;9.75;100.00
7200;BME280;3641;49.082;8.200;2024-02-16T03:05:23;100111.06;;;9.76;100.00
7200;BME280;3641;49.082;8.200;2024-02-16T03:07:49;100111.81;;;9.70;100.00
7200;BME280;3641;49.082;8.200;2024-02-16T03:10:16;100114.91;;;9.67;100.00
7200;BME280;3641;49.082;8.200;2024-02-16T03:12:47;100118.41;;;9.75;100.00
7200;BME280;3641;49.082;8.200;2024-02-16T03:15:16;100119.50;;;9.66;100.00
7200;BME280;3641;49.082;8.200;2024-02-16T03:17:42;100113.88;;;9.68;100.00
7200;BME280;3641;49.082;8.200;2024-02-16T03:20:09;100129.97;;;9.77;100.00
7200;BME280;3641;49.082;8.200;2024-02-16T03:22:36;100125.75;;;9.75;100.00
7200;BME280;3641;49.082;8.200;2024-02-16T03:25:03;100123.41;;;9.72;100.00
7200;BME280;3641;49.082;8.200;2024-02-16T03:27:30;100126.00;;;9.65;100.00
7200;BME280;3641;49.082;8.200;2024-02-16T03:29:56;100123.81;;;9.60;100.00
7200;BME280;3641;49.082;8.200;2024-02-16T03:32:24;100128.06;;;9.63;100.00
7200;BME280;3641;49.082;8.200;2024-02-16T03:34:51;100116.97;;;9.64;100.00
7200;BME280;3641;49.082;8.200;2024-02-16T03:37:17;100111.53;;;9.64;100.00
7200;BME280;3641;49.082;8.200;2024-02-16T03:39:44;100119.03;;;9.62;100.00
7200;BME280;3641;49.082;8.200;2024-02-16T03:42:11;100111.25;;;9.59;100.00
7200;BME280;3641;49.082;8.200;2024-02-16T03:44:37;100121.16;;;9.52;100.00
7200;BME280;3641;49.082;8.200;2024-02-16T03:47:04;100118.63;;;9.51;100.00
7200;BME280;3641;49.082;8.200;2024-02-16T03:49:32;100122.78;;;9.47;100.00
7200;BME280;3641;49.082;8.200;2024-02-16T03:51:57;100128.88;;;9.49;100.00
7200;BME280;3641;49.082;8.200;2024-02-16T03:54:24;100133.13;;;9.51;100.00
7200;BME280;3641;49.082;8.200;2024-02-16T03:56:52;100146.56;;;9.53;100.00
7200;BME280;3641;49.082;8.200;2024-02-16T03:59:19;100143.41;;;9.41;100.00
7200;BME280;3641;49.082;8.200;2024-02-16T04:01:46;100150.66;;;9.49;100.00
7200;BME280;3641;49.082;8.200;2024-02-16T04:04:12;100156.47;;;9.45;100.00
7200;BME280;3641;49.082;8.200;2024-02-16T04:06:40;100151.22;;;9.44;100.00
7200;BME280;3641;49.082;8.200;2024-02-16T04:09:06;100150.25;;;9.14;100.00
7200;BME280;3641;49.082;8.200;2024-02-16T04:11:33;100142.72;;;9.24;100.00
7200;BME280;3641;49.082;8.200;2024-02-16T04:14:00;100148.66;;;9.42;100.00
7200;BME280;3641;49.082;8.200;2024-02-16T04:16:27;100142.84;;;9.45;100.00
7200;BME280;3641;49.082;8.200;2024-02-16T04:18:54;100140.22;;;9.37;100.00
7200;BME280;3641;49.082;8.200;2024-02-16T04:21:21;100140.69;;;9.41;100.00
7200;BME280;3641;49.082;8.200;2024-02-16T04:23:49;100140.78;;;9.48;100.00
7200;BME280;3641;49.082;8.200;2024-02-16T04:26:15;100135.13;;;9.34;100.00
7200;BME280;3641;49.082;8.200;2024-02-16T04:28:41;100135.84;;;9.51;100.00
7200;BME280;3641;49.082;8.200;2024-02-16T04:31:08;100135.59;;;9.61;100.00
7200;BME280;3641;49.082;8.200;2024-02-16T04:33:34;100130.22;;;9.53;100.00
7200;BME280;3641;49.082;8.200;2024-02-16T04:36:01;100137.16;;;9.55;100.00
7200;BME280;3641;49.082;8.200;2024-02-16T04:38:27;100128.59;;;9.43;100.00
7200;BME280;3641;49.082;8.200;2024-02-16T04:40:55;100144.31;;;9.33;100.00
7200;BME280;3641;49.082;8.200;2024-02-16T04:43:21;100143.28;;;9.34;100.00
7200;BME280;3641;49.082;8.200;2024-02-16T04:45:48;100145.72;;;9.29;100.00
7200;BME280;3641;49.082;8.200;2024-02-16T04:48:14;100146.03;;;9.34;100.00
7200;BME280;3641;49.082;8.200;2024-02-16T04:50:41;100152.31;;;9.35;100.00
7200;BME280;3641;49.082;8.200;2024-02-16T04:53:07;100158.59;;;9.12;100.00
7200;BME280;3641;49.082;8.200;2024-02-16T04:55:34;100154.75;;;9.06;100.00
7200;BME280;3641;49.082;8.200;2024-02-16T04:58:02;100156.75;;;9.13;100.00
7200;BME280;3641;49.082;8.200;2024-02-16T05:00:30;100155.81;;;9.20;100.00
7200;BME280;3641;49.082;8.200;2024-02-16T05:02:57;100151.41;;;9.42;100.00
7200;BME280;3641;49.082;8.200;2024-02-16T05:05:23;100160.44;;;9.20;100.00
7200;BME280;3641;49.082;8.200;2024-02-16T05:07:50;100151.31;;;9.13;100.00
7200;BME280;3641;49.082;8.200;2024-02-16T05:10:16;100167.81;;;9.11;100.00
7200;BME280;3641;49.082;8.200;2024-02-16T05:12:44;100167.63;;;9.13;100.00
7200;BME280;3641;49.082;8.200;2024-02-16T05:15:12;100162.50;;;9.18;100.00
7200;BME280;3641;49.082;8.200;2024-02-16T05:17:40;100165.31;;;9.48;100.00
7200;BME280;3641;49.082;8.200;2024-02-16T05:20:10;100166.28;;;9.55;100.00
7200;BME280;3641;49.082;8.200;2024-02-16T05:22:42;100153.03;;;9.05;100.00
7200;BME280;3641;49.082;8.200;2024-02-16T05:25:09;100163.81;;;9.45;100.00
7200;BME280;3641;49.082;8.200;2024-02-16T05:27:36;100164.06;;;9.35;100.00
7200;BME280;3641;49.082;8.200;2024-02-16T05:30:03;100154.41;;;9.48;100.00
7200;BME280;3641;49.082;8.200;2024-02-16T05:32:34;100161.56;;;9.49;100.00
7200;BME280;3641;49.082;8.200;2024-02-16T05:35:01;100151.81;;;9.31;100.00
7200;BME280;3641;49.082;8.200;2024-02-16T05:37:30;100155.66;;;9.45;100.00
7200;BME280;3641;49.082;8.200;2024-02-16T05:39:57;100146.69;;;9.36;100.00
7200;BME280;3641;49.082;8.200;2024-02-16T05:42:33;100155.22;;;9.33;100.00
7200;BME280;3641;49.082;8.200;2024-02-16T05:45:00;100149.75;;;9.33;100.00
7200;BME280;3641;49.082;8.200;2024-02-16T05:47:28;100151.16;;;9.29;100.00
7200;BME280;3641;49.082;8.200;2024-02-16T05:49:56;100155.63;;;9.22;100.00
7200;BME280;3641;49.082;8.200;2024-02-16T05:52:23;100159.81;;;9.33;100.00
7200;BME280;3641;49.082;8.200;2024-02-16T05:54:50;100164.94;;;9.51;100.00
7200;BME280;3641;49.082;8.200;2024-02-16T05:57:17;100159.22;;;9.45;100.00
7200;BME280;3641;49.082;8.200;2024-02-16T05:59:44;100169.88;;;9.32;100.00
7200;BME280;3641;49.082;8.200;2024-02-16T06:02:10;100170.47;;;9.19;100.00
7200;BME280;3641;49.082;8.200;2024-02-16T06:04:38;100178.53;;;9.36;100.00
7200;BME280;3641;49.082;8.200;2024-02-16T06:07:06;100180.31;;;9.20;100.00
7200;BME280;3641;49.082;8.200;2024-02-16T06:09:33;100172.41;;;9.34;100.00
7200;BME280;3641;49.082;8.200;2024-02-16T06:12:01;100177.47;;;9.14;100.00
7200;BME280;3641;49.082;8.200;2024-02-16T06:14:29;100190.19;;;9.21;100.00
7200;BME280;3641;49.082;8.200;2024-02-16T06:16:56;100185.63;;;9.45;100.00
7200;BME280;3641;49.082;8.200;2024-02-16T06:19:23;100187.97;;;9.25;100.00
7200;BME280;3641;49.082;8.200;2024-02-16T06:21:49;100188.41;;;9.37;100.00
7200;BME280;3641;49.082;8.200;2024-02-16T06:24:17;100200.50;;;9.34;100.00
7200;BME280;3641;49.082;8.200;2024-02-16T06:26:44;100200.13;;;9.37;100.00
7200;BME280;3641;49.082;8.200;2024-02-16T06:29:10;100206.75;;;9.43;100.00
7200;BME280;3641;49.082;8.200;2024-02-16T06:31:37;100200.91;;;9.23;100.00
7200;BME280;3641;49.082;8.200;2024-02-16T06:34:03;100204.50;;;9.47;100.00
7200;BME280;3641;49.082;8.200;2024-02-16T06:36:29;100208.44;;;9.44;100.00
7200;BME280;3641;49.082;8.200;2024-02-16T06:38:56;100213.03;;;9.43;100.00
7200;BME280;3641;49.082;8.200;2024-02-16T06:41:24;100214.97;;;9.35;100.00
7200;BME280;3641;49.082;8.200;2024-02-16T06:43:50;100216.09;;;9.17;100.00
7200;BME280;3641;49.082;8.200;2024-02-16T06:46:17;100224.63;;;9.14;100.00
7200;BME280;3641;49.082;8.200;2024-02-16T06:48:43;100234.78;;;9.29;100.00
7200;BME280;3641;49.082;8.200;2024-02-16T06:51:10;100235.59;;;8.98;100.00
7200;BME280;3641;49.082;8.200;2024-02-16T06:53:36;100229.63;;;9.34;100.00
7200;BME280;3641;49.082;8.200;2024-02-16T06:56:03;100235.50;;;9.14;100.00
7200;BME280;3641;49.082;8.200;2024-02-16T06:58:31;100232.94;;;9.21;100.00
7200;BME280;3641;49.082;8.200;2024-02-16T07:00:57;100237.28;;;9.30;100.00
7200;BME280;3641;49.082;8.200;2024-02-16T07:03:28;100235.25;;;9.32;100.00
7200;BME280;3641;49.082;8.200;2024-02-16T07:05:54;100242.72;;;9.30;100.00
7200;BME280;3641;49.082;8.200;2024-02-16T07:08:21;100234.47;;;9.47;100.00
7200;BME280;3641;49.082;8.200;2024-02-16T07:10:49;100241.47;;;9.18;100.00
7200;BME280;3641;49.082;8.200;2024-02-16T07:13:19;100246.16;;;9.32;100.00
7200;BME280;3641;49.082;8.200;2024-02-16T07:15:47;100246.28;;;9.39;100.00
7200;BME280;3641;49.082;8.200;2024-02-16T07:18:14;100248.06;;;9.23;100.00
7200;BME280;3641;49.082;8.200;2024-02-16T07:20:41;100251.59;;;9.32;100.00
7200;BME280;3641;49.082;8.200;2024-02-16T07:23:08;100266.50;;;9.44;100.00
7200;BME280;3641;49.082;8.200;2024-02-16T07:25:36;100268.84;;;9.24;100.00
7200;BME280;3641;49.082;8.200;2024-02-16T07:28:02;100262.31;;;9.34;100.00
7200;BME280;3641;49.082;8.200;2024-02-16T07:30:30;100271.19;;;9.27;100.00
7200;BME280;3641;49.082;8.200;2024-02-16T07:32:57;100268.38;;;9.44;100.00
7200;BME280;3641;49.082;8.200;2024-02-16T07:35:24;100270.31;;;9.35;100.00
7200;BME280;3641;49.082;8.200;2024-02-16T07:37:50;100267.06;;;9.32;99.68
7200;BME280;3641;49.082;8.200;2024-02-16T07:40:19;100269.78;;;9.32;99.49
7200;BME280;3641;49.082;8.200;2024-02-16T07:42:46;100271.09;;;9.44;99.60
7200;BME280;3641;49.082;8.200;2024-02-16T07:45:12;100272.50;;;9.40;99.57
7200;BME280;3641;49.082;8.200;2024-02-16T07:47:40;100274.34;;;9.39;98.94
7200;BME280;3641;49.082;8.200;2024-02-16T07:50:09;100278.31;;;9.60;99.76
7200;BME280;3641;49.082;8.200;2024-02-16T07:52:36;100274.81;;;9.51;99.39
7200;BME280;3641;49.082;8.200;2024-02-16T07:55:03;100279.75;;;9.48;98.60
7200;BME280;3641;49.082;8.200;2024-02-16T07:57:29;100283.47;;;9.55;99.16
7200;BME280;3641;49.082;8.200;2024-02-16T07:59:56;100280.25;;;9.51;96.92
7200;BME280;3641;49.082;8.200;2024-02-16T08:02:23;100278.00;;;9.55;96.54
7200;BME280;3641;49.082;8.200;2024-02-16T08:04:49;100283.22;;;9.64;95.39
7200;BME280;3641;49.082;8.200;2024-02-16T08:07:17;100292.06;;;9.67;95.36
7200;BME280;3641;49.082;8.200;2024-02-16T08:09:44;100289.84;;;9.70;94.63
7200;BME280;3641;49.082;8.200;2024-02-16T08:12:11;100280.91;;;9.76;95.22
7200;BME280;3641;49.082;8.200;2024-02-16T08:14:38;100286.88;;;9.80;94.58
7200;BME280;3641;49.082;8.200;2024-02-16T08:17:05;100287.81;;;9.87;92.40
7200;BME280;3641;49.082;8.200;2024-02-16T08:19:32;100289.47;;;9.96;92.92
7200;BME280;3641;49.082;8.200;2024-02-16T08:21:59;100294.19;;;10.03;90.31
7200;BME280;3641;49.082;8.200;2024-02-16T08:24:27;100287.31;;;10.07;90.10
7200;BME280;3641;49.082;8.200;2024-02-16T08:26:54;100287.63;;;10.12;89.85
7200;BME280;3641;49.082;8.200;2024-02-16T08:29:21;100291.50;;;10.17;89.38
7200;BME280;3641;49.082;8.200;2024-02-16T08:31:49;100296.88;;;10.26;89.08
7200;BME280;3641;49.082;8.200;2024-02-16T08:34:15;100292.94;;;10.28;89.08
7200;BME280;3641;49.082;8.200;2024-02-16T08:36:43;100288.94;;;10.39;88.80
7200;BME280;3641;49.082;8.200;2024-02-16T08:39:10;100293.16;;;10.42;87.80
7200;BME280;3641;49.082;8.200;2024-02-16T08:41:38;100306.34;;;10.38;88.39
7200;BME280;3641;49.082;8.200;2024-02-16T08:44:04;100315.03;;;10.57;86.96
7200;BME280;3641;49.082;8.200;2024-02-16T08:46:32;100309.31;;;10.66;88.81
7200;BME280;3641;49.082;8.200;2024-02-16T08:48:58;100313.81;;;10.59;91.54
7200;BME280;3641;49.082;8.200;2024-02-16T08:51:25;100314.84;;;10.88;83.79
7200;BME280;3641;49.082;8.200;2024-02-16T08:53:51;100315.16;;;10.93;83.53
7200;BME280;3641;49.082;8.200;2024-02-16T08:56:18;100311.00;;;10.97;83.59
7200;BME280;3641;49.082;8.200;2024-02-16T08:58:45;100317.03;;;10.93;85.14
7200;BME280;3641;49.082;8.200;2024-02-16T09:01:12;100320.72;;;11.00;84.85
7200;BME280;3641;49.082;8.200;2024-02-16T09:03:38;100315.53;;;11.05;85.22
7200;BME280;3641;49.082;8.200;2024-02-16T09:06:06;100327.31;;;11.20;83.35
7200;BME280;3641;49.082;8.200;2024-02-16T09:08:32;100320.31;;;11.18;87.84
7200;BME280;3641;49.082;8.200;2024-02-16T09:11:00;100322.09;;;11.25;83.55
7200;BME280;3641;49.082;8.200;2024-02-16T09:13:30;100320.53;;;11.53;82.35
7200;BME280;3641;49.082;8.200;2024-02-16T09:15:58;100323.47;;;11.51;81.57
7200;BME280;3641;49.082;8.200;2024-02-16T09:18:24;100329.06;;;11.43;83.53
7200;BME280;3641;49.082;8.200;2024-02-16T09:20:51;100325.44;;;11.79;80.52
7200;BME280;3641;49.082;8.200;2024-02-16T09:23:17;100327.59;;;11.84;80.55
7200;BME280;3641;49.082;8.200;2024-02-16T09:25:43;100337.09;;;11.66;82.92
7200;BME280;3641;49.082;8.200;2024-02-16T09:28:11;100334.78;;;11.85;81.40
7200;BME280;3641;49.082;8.200;2024-02-16T09:30:37;100341.03;;;11.78;83.00
7200;BME280;3641;49.082;8.200;2024-02-16T09:33:05;100343.63;;;12.02;80.58
7200;BME280;3641;49.082;8.200;2024-02-16T09:35:32;100344.00;;;12.20;78.22
7200;BME280;3641;49.082;8.200;2024-02-16T09:37:59;100347.06;;;12.10;82.09
7200;BME280;3641;49.082;8.200;2024-02-16T09:40:25;100346.88;;;12.33;77.96
7200;BME280;3641;49.082;8.200;2024-02-16T09:42:52;100350.44;;;12.34;77.01
7200;BME280;3641;49.082;8.200;2024-02-16T09:45:19;100353.81;;;12.36;76.58
7200;BME280;3641;49.082;8.200;2024-02-16T09:47:46;100360.81;;;12.39;78.83
7200;BME280;3641;49.082;8.200;2024-02-16T09:50:14;100361.47;;;12.69;75.42
7200;BME280;3641;49.082;8.200;2024-02-16T09:52:41;100370.53;;;12.69;76.59
7200;BME280;3641;49.082;8.200;2024-02-16T09:55:13;100378.56;;;12.99;75.23
7200;BME280;3641;49.082;8.200;2024-02-16T09:57:39;100376.09;;;13.11;73.65
7200;BME280;3641;49.082;8.200;2024-02-16T10:00:06;100370.00;;;13.16;73.15
7200;BME280;3641;49.082;8.200;2024-02-16T10:02:39;100371.69;;;13.10;74.08
7200;BME280;3641;49.082;8.200;2024-02-16T10:05:11;100375.06;;;13.12;73.93
7200;BME280;3641;49.082;8.200;2024-02-16T10:07:39;100372.34;;;13.19;72.82
7200;BME280;3641;49.082;8.200;2024-02-16T10:10:06;100377.97;;;13.39;72.06
7200;BME280;3641;49.082;8.200;2024-02-16T10:12:33;100368.81;;;14.68;67.98
7200;BME280;3641;49.082;8.200;2024-02-16T10:14:59;100367.69;;;16.20;61.30
7200;BME280;3641;49.082;8.200;2024-02-16T10:17:29;100380.44;;;16.97;61.02
7200;BME280;3641;49.082;8.200;2024-02-16T10:19:56;100370.31;;;16.08;63.56
7200;BME280;3641;49.082;8.200;2024-02-16T10:22:22;100380.88;;;15.59;63.57
7200;BME280;3641;49.082;8.200;2024-02-16T10:24:50;100376.50;;;15.45;68.22
7200;BME280;3641;49.082;8.200;2024-02-16T10:27:17;100388.88;;;14.96;66.88
7200;BME280;3641;49.082;8.200;2024-02-16T10:29:46;100385.91;;;14.91;70.72
7200;BME280;3641;49.082;8.200;2024-02-16T10:32:14;100381.91;;;14.73;66.87
7200;BME280;3641;49.082;8.200;2024-02-16T10:34:41;100382.53;;;14.75;75.83
7200;BME280;3641;49.082;8.200;2024-02-16T10:37:09;100388.47;;;14.65;68.08
7200;BME280;3641;49.082;8.200;2024-02-16T10:39:36;100395.41;;;14.54;71.36
7200;BME280;3641;49.082;8.200;2024-02-16T10:42:06;100394.13;;;14.57;72.70
7200;BME280;3641;49.082;8.200;2024-02-16T10:44:34;100391.38;;;14.44;68.84
7200;BME280;3641;49.082;8.200;2024-02-16T10:47:01;100396.03;;;14.43;68.06
7200;BME280;3641;49.082;8.200;2024-02-16T10:49:29;100400.69;;;14.43;68.56
7200;BME280;3641;49.082;8.200;2024-02-16T10:51:56;100386.53;;;14.39;71.83
7200;BME280;3641;49.082;8.200;2024-02-16T10:54:28;100391.56;;;14.29;69.91
7200;BME280;3641;49.082;8.200;2024-02-16T10:56:57;100394.97;;;14.38;68.66
7200;BME280;3641;49.082;8.200;2024-02-16T10:59:25;100392.66;;;14.34;69.06
7200;BME280;3641;49.082;8.200;2024-02-16T11:01:59;100391.97;;;14.26;70.05
7200;BME280;3641;49.082;8.200;2024-02-16T11:04:36;100388.63;;;14.30;70.67
7200;BME280;3641;49.082;8.200;2024-02-16T11:07:10;100390.72;;;14.22;69.73
7200;BME280;3641;49.082;8.200;2024-02-16T11:09:39;100381.81;;;14.20;70.54
7200;BME280;3641;49.082;8.200;2024-02-16T11:12:07;100385.25;;;14.42;70.54
7200;BME280;3641;49.082;8.200;2024-02-16T11:14:36;100386.75;;;14.38;71.67
7200;BME280;3641;49.082;8.200;2024-02-16T11:17:07;100388.59;;;14.24;72.34
7200;BME280;3641;49.082;8.200;2024-02-16T11:19:35;100394.53;;;14.27;70.65
7200;BME280;3641;49.082;8.200;2024-02-16T11:22:03;100381.00;;;14.26;71.28
7200;BME280;3641;49.082;8.200;2024-02-16T11:24:33;100400.84;;;14.21;74.49
7200;BME280;3641;49.082;8.200;2024-02-16T11:27:01;100394.09;;;14.24;70.90
7200;BME280;3641;49.082;8.200;2024-02-16T11:29:31;100401.25;;;14.18;71.47
7200;BME280;3641;49.082;8.200;2024-02-16T11:32:00;100393.41;;;14.08;72.86
7200;BME280;3641;49.082;8.200;2024-02-16T11:34:26;100390.69;;;14.08;73.17
7200;BME280;3641;49.082;8.200;2024-02-16T11:36:54;100397.66;;;14.11;73.68
7200;BME280;3641;49.082;8.200;2024-02-16T11:39:21;100397.66;;;14.11;74.89
7200;BME280;3641;49.082;8.200;2024-02-16T11:41:47;100396.84;;;14.17;73.72
7200;BME280;3641;49.082;8.200;2024-02-16T11:44:14;100404.66;;;14.20;72.75
7200;BME280;3641;49.082;8.200;2024-02-16T11:46:41;100397.06;;;14.22;73.34
7200;BME280;3641;49.082;8.200;2024-02-16T11:49:09;100398.97;;;14.28;73.34
7200;BME280;3641;49.082;8.200;2024-02-16T11:51:36;100404.69;;;14.33;72.90
7200;BME280;3641;49.082;8.200;2024-02-16T11:54:05;100407.63;;;14.25;75.99
7200;BME280;3641;49.082;8.200;2024-02-16T11:56:32;100418.59;;;14.25;74.41
7200;BME280;3641;49.082;8.200;2024-02-16T11:58:59;100394.09;;;14.24;73.56
7200;BME280;3641;49.082;8.200;2024-02-16T12:01:25;100404.88;;;14.25;74.60
7200;BME280;3641;49.082;8.200;2024-02-16T12:03:51;100419.84;;;14.29;74.80
7200;BME280;3641;49.082;8.200;2024-02-16T12:06:22;100405.31;;;14.35;73.73
7200;BME280;3641;49.082;8.200;2024-02-16T12:08:49;100401.31;;;14.45;73.89
7200;BME280;3641;49.082;8.200;2024-02-16T12:11:17;100401.97;;;14.53;72.37
7200;BME280;3641;49.082;8.200;2024-02-16T12:13:44;100407.63;;;14.39;76.48
7200;BME280;3641;49.082;8.200;2024-02-16T12:16:10;100406.59;;;14.53;72.42
7200;BME280;3641;49.082;8.200;2024-02-16T12:18:37;100410.41;;;14.59;72.48
7200;BME280;3641;49.082;8.200;2024-02-16T12:21:05;100409.53;;;14.38;74.39
7200;BME280;3641;49.082;8.200;2024-02-16T12:23:33;100413.53;;;14.42;74.49
7200;BME280;3641;49.082;8.200;2024-02-16T12:26:00;100418.66;;;14.52;73.70
7200;BME280;3641;49.082;8.200;2024-02-16T12:28:29;100414.41;;;14.56;73.21
7200;BME280;3641;49.082;8.200;2024-02-16T12:30:57;100415.47;;;14.48;74.20
7200;BME280;3641;49.082;8.200;2024-02-16T12:33:24;100423.50;;;14.50;73.74
7200;BME280;3641;49.082;8.200;2024-02-16T12:35:51;100425.41;;;14.43;73.59
7200;BME280;3641;49.082;8.200;2024-02-16T12:38:19;100421.16;;;14.33;77.23
7200;BME280;3641;49.082;8.200;2024-02-16T12:40:47;100414.66;;;14.61;72.69
7200;BME280;3641;49.082;8.200;2024-02-16T12:43:13;100422.44;;;14.51;75.33
7200;BME280;3641;49.082;8.200;2024-02-16T12:45:40;100418.22;;;14.55;76.18
7200;BME280;3641;49.082;8.200;2024-02-16T12:48:07;100426.25;;;14.57;75.24
7200;BME280;3641;49.082;8.200;2024-02-16T12:50:35;100420.38;;;14.73;73.05
7200;BME280;3641;49.082;8.200;2024-02-16T12:53:03;100422.47;;;14.98;72.36
7200;BME280;3641;49.082;8.200;2024-02-16T12:55:29;100422.91;;;14.88;72.85
7200;BME280;3641;49.082;8.200;2024-02-16T12:57:57;100424.63;;;14.82;74.66
7200;BME280;3641;49.082;8.200;2024-02-16T13:00:23;100424.63;;;14.82;75.92
7200;BME280;3641;49.082;8.200;2024-02-16T13:02:50;100426.28;;;14.83;74.83
7200;BME280;3641;49.082;8.200;2024-02-16T13:05:16;100421.66;;;14.84;75.96
7200;BME280;3641;49.082;8.200;2024-02-16T13:07:43;100418.47;;;14.87;74.40
7200;BME280;3641;49.082;8.200;2024-02-16T13:10:09;100429.25;;;14.82;75.25
7200;BME280;3641;49.082;8.200;2024-02-16T13:12:37;100432.00;;;14.82;74.89